createdAt,value
2023-10-22T00:02:03.706Z,100.00
2023-10-22T00:04:33.193Z,100.00
2023-10-22T00:07:02.712Z,100.00
2023-10-22T00:09:32.055Z,100.00
2023-10-22T00:12:01.483Z,100.00
2023-10-22T00:14:33.489Z,100.00
2023-10-22T00:17:02.848Z,100.00
2023-10-22T00:19:32.167Z,100.00
2023-10-22T00:22:01.563Z,100.00
2023-10-22T00:24:30.940Z,100.00
2023-10-22T00:27:01.568Z,100.00
2023-10-22T00:29:33.514Z,100.00
2023-10-22T00:32:02.948Z,100.00
2023-10-22T00:34:32.423Z,100.00
2023-10-22T00:37:01.952Z,100.00
2023-10-22T00:39:31.325Z,100.00
2023-10-22T00:42:00.725Z,100.00
2023-10-22T00:44:32.806Z,100.00
2023-10-22T00:47:02.392Z,100.00
2023-10-22T00:49:32.316Z,100.00
2023-10-22T00:52:02.004Z,100.00
2023-10-22T00:54:31.487Z,100.00
2023-10-22T00:57:01.212Z,100.00
2023-10-22T00:59:33.375Z,100.00
2023-10-22T01:02:02.808Z,100.00
2023-10-22T01:04:32.217Z,100.00
2023-10-22T01:07:01.635Z,100.00
2023-10-22T01:09:31.066Z,100.00
2023-10-22T01:12:01.278Z,100.00
2023-10-22T01:14:33.526Z,100.00
2023-10-22T01:17:03.551Z,100.00
2023-10-22T01:19:33.629Z,100.00
2023-10-22T01:22:03.013Z,100.00
2023-10-22T01:24:37.780Z,100.00
2023-10-22T01:27:07.618Z,100.00
2023-10-22T01:29:37.115Z,100.00
2023-10-22T01:32:06.939Z,100.00
2023-10-22T01:34:36.470Z,100.00
2023-10-22T01:37:06.461Z,100.00
2023-10-22T01:39:38.397Z,100.00
2023-10-22T01:42:08.184Z,100.00
2023-10-22T01:44:37.827Z,100.00
2023-10-22T01:47:07.737Z,100.00
2023-10-22T01:49:37.072Z,100.00
2023-10-22T01:52:06.976Z,100.00
2023-10-22T01:54:40.409Z,100.00
2023-10-22T01:57:09.836Z,100.00
2023-10-22T01:59:39.895Z,100.00
2023-10-22T02:02:09.355Z,100.00
2023-10-22T02:04:38.992Z,100.00
2023-10-22T02:07:08.864Z,100.00
2023-10-22T02:09:41.056Z,100.00
2023-10-22T02:12:12.110Z,100.00
2023-10-22T02:14:41.621Z,100.00
2023-10-22T02:17:11.036Z,100.00
2023-10-22T02:19:40.626Z,100.00
2023-10-22T02:22:10.963Z,100.00
2023-10-22T02:24:43.138Z,100.00
2023-10-22T02:27:12.757Z,100.00
2023-10-22T02:29:42.213Z,100.00
2023-10-22T02:32:11.688Z,100.00
2023-10-22T02:34:41.159Z,100.00
2023-10-22T02:37:11.392Z,100.00
2023-10-22T02:39:43.423Z,100.00
2023-10-22T02:42:13.067Z,100.00
2023-10-22T02:44:42.498Z,100.00
2023-10-22T02:47:12.928Z,100.00
2023-10-22T02:49:42.304Z,100.00
2023-10-22T02:52:11.989Z,100.00
2023-10-22T02:54:43.902Z,100.00
2023-10-22T02:57:13.302Z,100.00
2023-10-22T02:59:42.687Z,100.00
2023-10-22T03:02:12.050Z,100.00
2023-10-22T03:04:41.752Z,100.00
2023-10-22T03:07:11.301Z,100.00
2023-10-22T03:09:40.703Z,100.00
2023-10-22T03:12:13.258Z,100.00
2023-10-22T03:14:42.718Z,100.00
2023-10-22T03:17:12.099Z,100.00
2023-10-22T03:19:42.015Z,100.00
2023-10-22T03:22:12.582Z,100.00
2023-10-22T03:24:41.942Z,100.00
2023-10-22T03:27:14.013Z,100.00
2023-10-22T03:29:43.605Z,100.00
2023-10-22T03:32:13.308Z,100.00
2023-10-22T03:34:42.780Z,100.00
2023-10-22T03:37:13.617Z,100.00
2023-10-22T03:39:42.991Z,100.00
2023-10-22T03:42:14.997Z,100.00
2023-10-22T03:44:44.407Z,100.00
2023-10-22T03:47:13.781Z,100.00
2023-10-22T03:49:43.151Z,100.00
2023-10-22T03:52:12.487Z,100.00
2023-10-22T03:54:42.078Z,100.00
2023-10-22T03:57:11.493Z,100.00
2023-10-22T03:59:43.591Z,100.00
2023-10-22T04:02:13.032Z,100.00
2023-10-22T04:04:42.490Z,100.00
2023-10-22T04:07:12.105Z,100.00
2023-10-22T04:09:41.511Z,100.00
2023-10-22T04:12:12.051Z,100.00
2023-10-22T04:14:44.041Z,100.00
2023-10-22T04:17:13.462Z,100.00
2023-10-22T04:19:42.806Z,100.00
2023-10-22T04:22:12.186Z,100.00
2023-10-22T04:24:41.571Z,100.00
2023-10-22T04:27:12.790Z,100.00
2023-10-22T04:29:47.837Z,100.00
2023-10-22T04:32:17.826Z,100.00
2023-10-22T04:34:47.165Z,100.00
2023-10-22T04:37:18.450Z,100.00
2023-10-22T04:39:47.817Z,100.00
2023-10-22T04:42:17.235Z,100.00
2023-10-22T04:44:49.204Z,100.00
2023-10-22T04:47:18.528Z,100.00
2023-10-22T04:49:49.912Z,100.00
2023-10-22T04:52:24.225Z,100.00
2023-10-22T04:54:53.788Z,100.00
2023-10-22T04:57:23.219Z,100.00
2023-10-22T04:59:55.343Z,100.00
2023-10-22T05:02:24.996Z,100.00
2023-10-22T05:04:55.566Z,100.00
2023-10-22T05:07:24.926Z,100.00
2023-10-22T05:09:54.272Z,100.00
2023-10-22T05:12:23.697Z,100.00
2023-10-22T05:14:55.701Z,100.00
2023-10-22T05:17:25.856Z,100.00
2023-10-22T05:19:55.409Z,100.00
2023-10-22T05:22:24.853Z,100.00
2023-10-22T05:24:55.147Z,100.00
2023-10-22T05:27:25.968Z,100.00
2023-10-22T05:29:57.969Z,100.00
2023-10-22T05:32:27.477Z,100.00
2023-10-22T05:34:56.867Z,100.00
2023-10-22T05:37:26.332Z,100.00
2023-10-22T05:39:55.666Z,100.00
2023-10-22T05:42:25.452Z,100.00
2023-10-22T05:44:54.839Z,100.00
2023-10-22T05:47:30.741Z,100.00
2023-10-22T05:50:00.125Z,100.00
2023-10-22T05:52:29.707Z,100.00
2023-10-22T05:54:59.229Z,100.00
2023-10-22T05:57:29.703Z,100.00
2023-10-22T06:00:00.393Z,100.00
2023-10-22T06:02:32.438Z,100.00
2023-10-22T06:05:07.769Z,100.00
2023-10-22T06:07:43.237Z,100.00
2023-10-22T06:10:13.683Z,100.00
2023-10-22T06:12:43.050Z,100.00
2023-10-22T06:15:14.405Z,100.00
2023-10-22T06:17:46.726Z,100.00
2023-10-22T06:20:16.355Z,100.00
2023-10-22T06:22:49.281Z,100.00
2023-10-22T06:25:18.768Z,100.00
2023-10-22T06:27:48.183Z,100.00
2023-10-22T06:30:23.224Z,100.00
2023-10-22T06:32:56.429Z,100.00
2023-10-22T06:35:27.548Z,100.00
2023-10-22T06:37:57.521Z,100.00
2023-10-22T06:40:27.693Z,100.00
2023-10-22T06:42:57.303Z,100.00
2023-10-22T06:45:26.658Z,100.00
2023-10-22T06:47:59.009Z,100.00
2023-10-22T06:50:28.428Z,100.00
2023-10-22T06:52:57.857Z,100.00
2023-10-22T06:55:27.454Z,100.00
2023-10-22T06:57:57.057Z,100.00
2023-10-22T07:00:26.502Z,100.00
2023-10-22T07:02:58.606Z,100.00
2023-10-22T07:05:27.992Z,100.00
2023-10-22T07:07:57.344Z,100.00
2023-10-22T07:10:26.701Z,100.00
2023-10-22T07:12:58.590Z,100.00
2023-10-22T07:15:28.248Z,100.00
2023-10-22T07:18:00.340Z,100.00
2023-10-22T07:20:29.855Z,100.00
2023-10-22T07:23:02.621Z,100.00
2023-10-22T07:25:32.502Z,100.00
2023-10-22T07:28:01.857Z,100.00
2023-10-22T07:30:31.292Z,100.00
2023-10-22T07:33:03.563Z,100.00
2023-10-22T07:35:33.017Z,100.00
2023-10-22T07:38:02.443Z,100.00
2023-10-22T07:40:31.801Z,100.00
2023-10-22T07:43:01.182Z,100.00
2023-10-22T07:45:30.869Z,100.00
2023-10-22T07:48:02.946Z,100.00
2023-10-22T07:50:32.401Z,100.00
2023-10-22T07:53:01.766Z,100.00
2023-10-22T07:55:31.158Z,100.00
2023-10-22T07:58:00.713Z,100.00
2023-10-22T08:00:30.263Z,100.00
2023-10-22T08:02:59.878Z,100.00
2023-10-22T08:05:33.099Z,100.00
2023-10-22T08:08:02.513Z,100.00
2023-10-22T08:10:31.899Z,100.00
2023-10-22T08:13:01.276Z,100.00
2023-10-22T08:15:30.732Z,100.00
2023-10-22T08:18:00.680Z,100.00
2023-10-22T08:20:32.777Z,100.00
2023-10-22T08:23:03.537Z,100.00
2023-10-22T08:25:34.844Z,100.00
2023-10-22T08:28:05.189Z,100.00
2023-10-22T08:30:34.736Z,100.00
2023-10-22T08:33:04.233Z,100.00
2023-10-22T08:35:36.375Z,100.00
2023-10-22T08:38:05.765Z,100.00
2023-10-22T08:40:35.182Z,100.00
2023-10-22T08:43:05.211Z,100.00
2023-10-22T08:45:36.066Z,100.00
2023-10-22T08:48:07.794Z,100.00
2023-10-22T08:50:40.993Z,100.00
2023-10-22T08:53:10.592Z,100.00
2023-10-22T08:55:40.004Z,100.00
2023-10-22T08:58:09.552Z,100.00
2023-10-22T09:00:40.037Z,100.00
2023-10-22T09:03:09.513Z,100.00
2023-10-22T09:05:43.363Z,100.00
2023-10-22T09:08:13.091Z,100.00
2023-10-22T09:10:42.728Z,100.00
2023-10-22T09:13:16.960Z,100.00
2023-10-22T09:15:48.252Z,100.00
2023-10-22T09:18:19.990Z,100.00
2023-10-22T09:20:52.481Z,100.00
2023-10-22T09:23:23.993Z,100.00
2023-10-22T09:25:55.030Z,100.00
2023-10-22T09:28:25.820Z,100.00
2023-10-22T09:30:58.784Z,100.00
2023-10-22T09:33:35.888Z,100.00
2023-10-22T09:36:10.622Z,100.00
2023-10-22T09:38:48.112Z,100.00
2023-10-22T09:41:29.633Z,100.00
2023-10-22T09:44:01.361Z,100.00
2023-10-22T09:46:33.735Z,100.00
2023-10-22T09:49:05.531Z,100.00
2023-10-22T09:51:39.552Z,100.00
2023-10-22T09:54:11.157Z,100.00
2023-10-22T09:56:46.220Z,100.00
2023-10-22T09:59:18.162Z,100.00
2023-10-22T10:01:45.271Z,100.00
2023-10-22T10:04:15.711Z,100.00
2023-10-22T10:06:48.215Z,100.00
2023-10-22T10:09:18.389Z,100.00
2023-10-22T10:11:48.631Z,100.00
2023-10-22T10:14:44.237Z,100.00
2023-10-22T10:17:14.799Z,100.00
2023-10-22T10:19:44.506Z,100.00
2023-10-22T10:22:40.367Z,100.00
2023-10-22T10:25:32.344Z,100.00
2023-10-22T10:28:06.786Z,100.00
2023-10-22T10:30:40.558Z,100.00
2023-10-22T10:33:17.033Z,100.00
2023-10-22T10:35:48.629Z,100.00
2023-10-22T10:38:22.613Z,100.00
2023-10-22T10:40:53.134Z,100.00
2023-10-22T10:43:22.904Z,100.00
2023-10-22T10:46:24.997Z,100.00
2023-10-22T10:48:57.159Z,100.00
2023-10-22T10:51:28.177Z,100.00
2023-10-22T10:54:16.448Z,100.00
2023-10-22T10:56:50.894Z,100.00
2023-10-22T10:59:33.871Z,100.00
2023-10-22T11:02:11.748Z,100.00
2023-10-22T11:04:49.438Z,100.00
2023-10-22T11:07:26.973Z,100.00
2023-10-22T11:09:57.752Z,100.00
2023-10-22T11:12:27.378Z,100.00
2023-10-22T11:14:59.059Z,100.00
2023-10-22T11:17:29.204Z,100.00
2023-10-22T11:20:01.567Z,100.00
2023-10-22T11:22:31.405Z,100.00
2023-10-22T11:25:01.822Z,100.00
2023-10-22T11:27:32.806Z,100.00
2023-10-22T11:30:03.191Z,100.00
2023-10-22T11:32:32.835Z,100.00
2023-10-22T11:35:08.799Z,100.00
2023-10-22T11:37:43.036Z,100.00
2023-10-22T11:40:29.888Z,100.00
2023-10-22T11:43:01.364Z,100.00
2023-10-22T11:45:33.258Z,100.00
2023-10-22T11:48:15.490Z,100.00
2023-10-22T11:50:51.526Z,100.00
2023-10-22T11:53:21.536Z,100.00
2023-10-22T11:55:51.158Z,100.00
2023-10-22T11:58:21.712Z,100.00
2023-10-22T12:00:51.662Z,100.00
2023-10-22T12:03:21.515Z,100.00
2023-10-22T12:05:53.703Z,100.00
2023-10-22T12:08:23.958Z,100.00
2023-10-22T12:10:53.481Z,100.00
2023-10-22T12:13:22.893Z,100.00
2023-10-22T12:15:52.393Z,100.00
2023-10-22T12:18:21.978Z,100.00
2023-10-22T12:20:54.058Z,100.00
2023-10-22T12:23:24.922Z,100.00
2023-10-22T12:25:55.618Z,100.00
2023-10-22T12:28:25.874Z,100.00
2023-10-22T12:30:55.374Z,100.00
2023-10-22T12:33:24.856Z,100.00
2023-10-22T12:35:56.914Z,100.00
2023-10-22T12:38:26.599Z,100.00
2023-10-22T12:40:56.014Z,100.00
2023-10-22T12:43:25.466Z,100.00
2023-10-22T12:45:55.378Z,100.00
2023-10-22T12:48:26.152Z,100.00
2023-10-22T12:50:58.224Z,100.00
2023-10-22T12:53:27.697Z,100.00
2023-10-22T12:55:58.203Z,100.00
2023-10-22T12:58:28.569Z,100.00
2023-10-22T13:01:00.964Z,100.00
2023-10-22T13:03:30.834Z,100.00
2023-10-22T13:06:05.382Z,100.00
2023-10-22T13:08:35.449Z,100.00
2023-10-22T13:11:05.272Z,100.00
2023-10-22T13:13:34.646Z,100.00
2023-10-22T13:16:04.099Z,100.00
2023-10-22T13:18:33.544Z,100.00
2023-10-22T13:21:06.537Z,100.00
2023-10-22T13:23:36.183Z,100.00
2023-10-22T13:26:05.671Z,100.00
2023-10-22T13:28:35.024Z,100.00
2023-10-22T13:31:06.063Z,100.00
2023-10-22T13:33:35.614Z,100.00
2023-10-22T13:36:08.169Z,100.00
2023-10-22T13:38:37.686Z,100.00
2023-10-22T13:41:07.239Z,100.00
2023-10-22T13:43:36.617Z,100.00
2023-10-22T13:46:06.102Z,100.00
2023-10-22T13:48:35.741Z,100.00
2023-10-22T13:51:10.402Z,100.00
2023-10-22T13:53:39.797Z,100.00
2023-10-22T13:56:09.196Z,100.00
2023-10-22T13:58:38.620Z,100.00
2023-10-22T14:01:14.071Z,100.00
2023-10-22T14:03:44.019Z,100.00
2023-10-22T14:06:16.721Z,100.00
2023-10-22T14:08:46.157Z,100.00
2023-10-22T14:11:16.643Z,100.00
2023-10-22T14:13:46.007Z,100.00
2023-10-22T14:16:15.513Z,100.00
2023-10-22T14:18:45.105Z,100.00
2023-10-22T14:21:17.357Z,100.00
2023-10-22T14:23:47.065Z,99.43
2023-10-22T14:26:16.856Z,99.72
2023-10-22T14:28:46.192Z,98.66
2023-10-22T14:31:15.855Z,98.88
2023-10-22T14:33:45.289Z,98.77
2023-10-22T14:36:18.114Z,98.63
2023-10-22T14:38:47.634Z,98.35
2023-10-22T14:41:16.995Z,98.79
2023-10-22T14:43:46.365Z,97.81
2023-10-22T14:46:15.815Z,98.54
2023-10-22T14:48:45.358Z,98.35
2023-10-22T14:51:17.394Z,98.93
2023-10-22T14:53:46.828Z,98.93
2023-10-22T14:56:16.209Z,99.93
2023-10-22T14:58:45.576Z,99.32
2023-10-22T15:01:15.357Z,100.00
2023-10-22T15:03:44.898Z,99.46
2023-10-22T15:06:17.054Z,100.00
2023-10-22T15:08:46.552Z,100.00
2023-10-22T15:11:21.029Z,99.17
2023-10-22T15:13:50.751Z,99.40
2023-10-22T15:16:20.276Z,99.56
2023-10-22T15:18:49.892Z,100.00
2023-10-22T15:21:23.411Z,99.95
2023-10-22T15:23:52.916Z,100.00
2023-10-22T15:26:22.928Z,100.00
2023-10-22T15:28:52.354Z,99.84
2023-10-22T15:31:22.279Z,100.00
2023-10-22T15:33:51.868Z,100.00
2023-10-22T15:36:23.974Z,100.00
2023-10-22T15:38:53.454Z,100.00
2023-10-22T15:41:22.905Z,100.00
2023-10-22T15:43:52.900Z,100.00
2023-10-22T15:46:24.449Z,100.00
2023-10-22T15:48:53.895Z,100.00
2023-10-22T15:51:26.241Z,100.00
2023-10-22T15:53:55.669Z,100.00
2023-10-22T15:56:25.357Z,100.00
2023-10-22T15:58:57.091Z,100.00
2023-10-22T16:01:26.972Z,100.00
2023-10-22T16:03:56.427Z,100.00
2023-10-22T16:06:28.622Z,100.00
2023-10-22T16:08:58.327Z,100.00
2023-10-22T16:11:27.785Z,100.00
2023-10-22T16:13:57.536Z,100.00
2023-10-22T16:16:26.952Z,100.00
2023-10-22T16:18:56.785Z,100.00
2023-10-22T16:21:28.823Z,100.00
2023-10-22T16:23:58.350Z,100.00
2023-10-22T16:26:28.005Z,100.00
2023-10-22T16:28:59.586Z,100.00
2023-10-22T16:31:29.783Z,100.00
2023-10-22T16:33:59.457Z,100.00
2023-10-22T16:36:33.240Z,100.00
2023-10-22T16:39:02.785Z,100.00
2023-10-22T16:41:32.526Z,100.00
2023-10-22T16:44:02.111Z,100.00
2023-10-22T16:46:31.510Z,100.00
2023-10-22T16:49:00.891Z,100.00
2023-10-22T16:51:32.863Z,100.00
2023-10-22T16:54:03.574Z,100.00
2023-10-22T16:56:33.061Z,100.00
2023-10-22T16:59:02.452Z,100.00
2023-10-22T17:01:31.897Z,100.00
2023-10-22T17:04:01.397Z,100.00
2023-10-22T17:06:33.798Z,100.00
2023-10-22T17:09:04.050Z,100.00
2023-10-22T17:11:35.071Z,100.00
2023-10-22T17:14:04.523Z,100.00
2023-10-22T17:16:34.752Z,100.00
2023-10-22T17:19:04.642Z,100.00
2023-10-22T17:21:39.680Z,100.00
2023-10-22T17:24:10.019Z,100.00
2023-10-22T17:26:39.432Z,100.00
2023-10-22T17:29:08.914Z,100.00
2023-10-22T17:31:38.365Z,100.00
2023-10-22T17:34:08.022Z,100.00
2023-10-22T17:36:42.261Z,100.00
2023-10-22T17:39:12.021Z,100.00
2023-10-22T17:41:41.425Z,100.00
2023-10-22T17:44:10.816Z,100.00
2023-10-22T17:46:40.362Z,100.00
2023-10-22T17:49:10.068Z,100.00
2023-10-22T17:51:42.277Z,100.00
2023-10-22T17:54:11.767Z,100.00
2023-10-22T17:56:41.157Z,100.00
2023-10-22T17:59:10.546Z,100.00
2023-10-22T18:01:39.937Z,100.00
2023-10-22T18:04:10.099Z,100.00
2023-10-22T18:06:42.226Z,100.00
2023-10-22T18:09:11.645Z,100.00
2023-10-22T18:11:41.107Z,100.00
2023-10-22T18:14:11.658Z,100.00
2023-10-22T18:16:41.368Z,100.00
2023-10-22T18:19:11.032Z,100.00
2023-10-22T18:21:43.588Z,100.00
2023-10-22T18:24:15.359Z,100.00
2023-10-22T18:26:45.138Z,100.00
2023-10-22T18:29:15.491Z,100.00
2023-10-22T18:31:44.912Z,100.00
2023-10-22T18:34:14.306Z,100.00
2023-10-22T18:36:46.544Z,100.00
2023-10-22T18:39:16.208Z,100.00
2023-10-22T18:41:45.789Z,100.00
2023-10-22T18:44:15.201Z,100.00
2023-10-22T18:46:44.679Z,100.00
2023-10-22T18:49:14.856Z,100.00
2023-10-22T18:51:47.563Z,100.00
2023-10-22T18:54:17.360Z,100.00
2023-10-22T18:56:46.797Z,100.00
2023-10-22T18:59:16.505Z,100.00
2023-10-22T19:01:47.312Z,100.00
2023-10-22T19:04:16.891Z,100.00
2023-10-22T19:06:49.076Z,100.00
2023-10-22T19:09:18.545Z,100.00
2023-10-22T19:11:47.905Z,100.00
2023-10-22T19:14:19.188Z,100.00
2023-10-22T19:16:48.645Z,100.00
2023-10-22T19:19:18.040Z,100.00
2023-10-22T19:21:49.979Z,100.00
2023-10-22T19:24:19.422Z,100.00
2023-10-22T19:26:48.810Z,100.00
2023-10-22T19:29:18.351Z,100.00
2023-10-22T19:31:48.346Z,100.00
2023-10-22T19:34:19.134Z,100.00
2023-10-22T19:36:53.601Z,100.00
2023-10-22T19:39:23.244Z,100.00
2023-10-22T19:41:52.851Z,100.00
2023-10-22T19:44:22.476Z,100.00
2023-10-22T19:46:51.947Z,100.00
2023-10-22T19:49:21.650Z,100.00
2023-10-22T19:51:53.712Z,100.00
2023-10-22T19:54:25.769Z,100.00
2023-10-22T19:57:01.308Z,100.00
2023-10-22T19:59:30.760Z,100.00
2023-10-22T20:02:10.788Z,100.00
2023-10-22T20:04:44.364Z,100.00
2023-10-22T20:07:16.502Z,100.00
2023-10-22T20:09:45.925Z,100.00
2023-10-22T20:12:15.764Z,100.00
2023-10-22T20:14:45.686Z,100.00
2023-10-22T20:17:16.561Z,100.00
2023-10-22T20:19:46.065Z,100.00
2023-10-22T20:22:18.070Z,100.00
2023-10-22T20:24:48.902Z,100.00
2023-10-22T20:27:18.512Z,100.00
2023-10-22T20:29:48.079Z,100.00
2023-10-22T20:32:20.399Z,100.00
2023-10-22T20:34:49.768Z,100.00
2023-10-22T20:37:21.821Z,100.00
2023-10-22T20:39:52.643Z,100.00
2023-10-22T20:42:22.831Z,100.00
2023-10-22T20:44:54.948Z,100.00
2023-10-22T20:47:24.909Z,100.00
2023-10-22T20:49:56.462Z,100.00
2023-10-22T20:52:28.617Z,100.00
2023-10-22T20:54:58.304Z,100.00
2023-10-22T20:57:28.077Z,100.00
2023-10-22T20:59:57.740Z,100.00
2023-10-22T21:02:27.084Z,100.00
2023-10-22T21:04:56.442Z,100.00
2023-10-22T21:07:28.667Z,100.00
2023-10-22T21:10:00.588Z,100.00
2023-10-22T21:12:30.264Z,100.00
2023-10-22T21:14:59.694Z,100.00
2023-10-22T21:17:29.197Z,100.00
2023-10-22T21:19:58.589Z,100.00
2023-10-22T21:22:30.564Z,100.00
2023-10-22T21:24:59.917Z,100.00
2023-10-22T21:27:29.379Z,100.00
2023-10-22T21:29:58.882Z,100.00
2023-10-22T21:32:28.254Z,100.00
2023-10-22T21:34:57.912Z,100.00
2023-10-22T21:37:29.847Z,100.00
2023-10-22T21:40:06.107Z,100.00
2023-10-22T21:42:35.815Z,100.00
2023-10-22T21:45:06.143Z,100.00
2023-10-22T21:47:35.619Z,100.00
2023-10-22T21:50:05.045Z,100.00
2023-10-22T21:52:37.015Z,100.00
2023-10-22T21:55:06.693Z,100.00
2023-10-22T21:57:36.150Z,100.00
2023-10-22T22:00:05.552Z,100.00
2023-10-22T22:02:35.003Z,100.00
2023-10-22T22:05:04.434Z,100.00
2023-10-22T22:07:33.769Z,100.00
2023-10-22T22:10:05.775Z,100.00
2023-10-22T22:12:35.310Z,100.00
2023-10-22T22:15:05.450Z,100.00
2023-10-22T22:17:34.846Z,100.00
2023-10-22T22:20:04.236Z,100.00
2023-10-22T22:22:33.602Z,100.00
2023-10-22T22:25:05.662Z,100.00
2023-10-22T22:27:35.043Z,100.00
2023-10-22T22:30:04.497Z,100.00
2023-10-22T22:32:33.916Z,100.00
2023-10-22T22:35:04.184Z,100.00
2023-10-22T22:37:33.610Z,100.00
2023-10-22T22:40:05.637Z,100.00
2023-10-22T22:42:35.920Z,100.00
2023-10-22T22:45:05.333Z,100.00
2023-10-22T22:47:34.738Z,100.00
2023-10-22T22:50:04.173Z,100.00
2023-10-22T22:52:33.532Z,100.00
2023-10-22T22:55:06.858Z,100.00
2023-10-22T22:57:36.834Z,100.00
2023-10-22T23:00:08.564Z,100.00
2023-10-22T23:02:38.288Z,100.00
2023-10-22T23:05:08.883Z,100.00
2023-10-22T23:07:38.349Z,100.00
2023-10-22T23:10:10.888Z,100.00
2023-10-22T23:12:40.715Z,100.00
2023-10-22T23:15:11.278Z,100.00
2023-10-22T23:17:40.704Z,100.00
2023-10-22T23:20:11.888Z,100.00
2023-10-22T23:22:41.253Z,100.00
2023-10-22T23:25:13.375Z,100.00
2023-10-22T23:27:42.805Z,100.00
2023-10-22T23:30:12.915Z,100.00
2023-10-22T23:32:43.863Z,100.00
2023-10-22T23:35:14.129Z,100.00
2023-10-22T23:37:43.616Z,100.00
2023-10-22T23:40:16.067Z,100.00
2023-10-22T23:42:45.541Z,100.00
2023-10-22T23:45:15.219Z,100.00
2023-10-22T23:47:44.651Z,100.00
2023-10-22T23:50:14.475Z,100.00
2023-10-22T23:52:43.822Z,100.00
2023-10-22T23:55:15.756Z,100.00
2023-10-22T23:57:45.201Z,100.00
